createdAt,value
2023-09-23T00:00:04.533Z,14.75
2023-09-23T00:02:32.147Z,14.62
2023-09-23T00:05:00.139Z,14.77
2023-09-23T00:07:29.209Z,14.77
2023-09-23T00:09:56.772Z,14.69
2023-09-23T00:12:24.511Z,14.77
2023-09-23T00:14:52.639Z,14.70
2023-09-23T00:17:21.858Z,14.74
2023-09-23T00:19:49.466Z,14.59
2023-09-23T00:22:18.040Z,14.73
2023-09-23T00:24:45.986Z,14.72
2023-09-23T00:27:13.915Z,14.74
2023-09-23T00:29:41.569Z,14.61
2023-09-23T00:32:09.158Z,14.17
2023-09-23T00:34:38.837Z,14.37
2023-09-23T00:37:08.393Z,14.58
2023-09-23T00:39:42.810Z,14.52
2023-09-23T00:42:11.313Z,14.49
2023-09-23T00:44:42.587Z,14.58
2023-09-23T00:47:14.846Z,14.60
2023-09-23T00:49:45.778Z,14.79
2023-09-23T00:52:15.316Z,14.52
2023-09-23T00:54:47.185Z,14.59
2023-09-23T00:57:17.944Z,14.60
2023-09-23T00:59:45.532Z,14.51
2023-09-23T01:02:15.131Z,14.52
2023-09-23T01:04:44.875Z,14.43
2023-09-23T01:07:12.965Z,14.50
2023-09-23T01:09:41.214Z,14.37
2023-09-23T01:12:10.385Z,14.45
2023-09-23T01:14:38.699Z,14.42
2023-09-23T01:17:12.974Z,14.47
2023-09-23T01:19:40.840Z,14.43
2023-09-23T01:22:09.921Z,14.16
2023-09-23T01:24:38.892Z,14.26
2023-09-23T01:27:06.447Z,14.18
2023-09-23T01:29:34.278Z,14.17
2023-09-23T01:32:14.931Z,14.17
2023-09-23T01:34:42.547Z,14.18
2023-09-23T01:37:10.399Z,14.28
2023-09-23T01:39:41.555Z,14.22
2023-09-23T01:42:09.523Z,14.06
2023-09-23T01:44:37.546Z,14.10
2023-09-23T01:47:05.831Z,14.13
2023-09-23T01:49:33.465Z,14.12
2023-09-23T01:52:03.771Z,14.21
2023-09-23T01:54:31.361Z,14.10
2023-09-23T01:57:00.338Z,14.29
2023-09-23T01:59:27.981Z,14.33
2023-09-23T02:01:55.584Z,14.30
2023-09-23T02:04:23.296Z,14.25
2023-09-23T02:06:52.754Z,14.27
2023-09-23T02:09:20.312Z,14.09
2023-09-23T02:11:49.238Z,14.26
2023-09-23T02:14:18.192Z,14.18
2023-09-23T02:16:48.228Z,14.27
2023-09-23T02:19:15.882Z,14.20
2023-09-23T02:21:43.436Z,14.40
2023-09-23T02:24:10.982Z,14.44
2023-09-23T02:26:38.522Z,14.38
2023-09-23T02:29:07.810Z,14.31
2023-09-23T02:31:37.010Z,14.18
2023-09-23T02:34:07.055Z,14.17
2023-09-23T02:36:36.293Z,14.31
2023-09-23T02:39:11.912Z,14.37
2023-09-23T02:41:39.604Z,14.52
2023-09-23T02:44:07.301Z,14.58
2023-09-23T02:46:36.311Z,14.66
2023-09-23T02:49:04.007Z,14.59
2023-09-23T02:51:31.580Z,14.72
2023-09-23T02:53:59.159Z,14.70
2023-09-23T02:56:28.370Z,14.55
2023-09-23T02:58:57.564Z,14.62
2023-09-23T03:01:26.779Z,14.51
2023-09-23T03:03:56.356Z,14.49
2023-09-23T03:06:24.999Z,14.31
2023-09-23T03:08:55.331Z,14.25
2023-09-23T03:11:24.131Z,14.18
2023-09-23T03:13:53.952Z,14.18
2023-09-23T03:16:29.741Z,14.05
2023-09-23T03:19:11.645Z,14.07
2023-09-23T03:21:42.206Z,14.06
2023-09-23T03:24:11.249Z,13.98
2023-09-23T03:26:39.014Z,13.94
2023-09-23T03:29:07.622Z,13.88
2023-09-23T03:31:36.062Z,13.66
2023-09-23T03:34:05.109Z,13.77
2023-09-23T03:36:33.420Z,13.87
2023-09-23T03:39:01.865Z,13.90
2023-09-23T03:41:29.612Z,14.01
2023-09-23T03:43:57.239Z,13.88
2023-09-23T03:46:25.662Z,13.83
2023-09-23T03:48:53.357Z,13.83
2023-09-23T03:51:22.322Z,13.96
2023-09-23T03:53:52.232Z,13.85
2023-09-23T03:56:20.498Z,13.86
2023-09-23T03:58:48.227Z,14.00
2023-09-23T04:01:15.919Z,14.00
2023-09-23T04:03:43.855Z,13.84
2023-09-23T04:06:12.755Z,13.85
2023-09-23T04:08:42.021Z,13.92
2023-09-23T04:11:10.088Z,13.98
2023-09-23T04:13:39.175Z,13.77
2023-09-23T04:16:07.495Z,13.88
2023-09-23T04:18:35.140Z,13.71
2023-09-23T04:21:03.199Z,13.78
2023-09-23T04:23:30.746Z,13.67
2023-09-23T04:26:01.009Z,13.86
2023-09-23T04:28:28.558Z,14.00
2023-09-23T04:30:58.604Z,14.02
2023-09-23T04:33:28.610Z,13.92
2023-09-23T04:35:58.037Z,13.88
2023-09-23T04:38:26.161Z,14.06
2023-09-23T04:40:54.210Z,14.27
2023-09-23T04:43:26.257Z,14.08
2023-09-23T04:45:53.861Z,14.10
2023-09-23T04:48:21.860Z,13.89
2023-09-23T04:50:49.544Z,13.94
2023-09-23T04:53:17.428Z,14.15
2023-09-23T04:55:46.942Z,13.99
2023-09-23T04:58:14.595Z,14.14
2023-09-23T05:00:43.566Z,14.24
2023-09-23T05:03:11.161Z,14.19
2023-09-23T05:05:38.899Z,14.20
2023-09-23T05:08:11.301Z,14.10
2023-09-23T05:10:40.535Z,13.99
2023-09-23T05:13:10.629Z,14.00
2023-09-23T05:15:38.546Z,14.07
2023-09-23T05:18:09.454Z,14.02
2023-09-23T05:20:37.229Z,14.01
2023-09-23T05:23:06.693Z,13.96
2023-09-23T05:25:34.513Z,14.05
2023-09-23T05:28:03.756Z,13.81
2023-09-23T05:30:31.383Z,13.72
2023-09-23T05:32:58.951Z,13.89
2023-09-23T05:35:29.012Z,14.14
2023-09-23T05:37:56.627Z,14.15
2023-09-23T05:40:28.734Z,14.12
2023-09-23T05:42:56.733Z,13.99
2023-09-23T05:45:25.600Z,14.03
2023-09-23T05:47:54.211Z,14.22
2023-09-23T05:50:22.625Z,14.26
2023-09-23T05:52:53.512Z,14.31
2023-09-23T05:55:21.313Z,14.10
2023-09-23T05:57:50.155Z,14.27
2023-09-23T06:00:19.156Z,14.25
2023-09-23T06:02:48.887Z,14.32
2023-09-23T06:05:17.011Z,14.43
2023-09-23T06:07:44.640Z,14.38
2023-09-23T06:10:16.084Z,14.37
2023-09-23T06:12:44.027Z,14.50
2023-09-23T06:15:12.077Z,14.46
2023-09-23T06:17:39.874Z,14.39
2023-09-23T06:20:10.712Z,14.40
2023-09-23T06:22:38.661Z,14.28
2023-09-23T06:25:07.478Z,14.40
2023-09-23T06:27:37.291Z,14.51
2023-09-23T06:30:06.336Z,14.29
2023-09-23T06:32:34.749Z,14.50
2023-09-23T06:35:02.787Z,14.51
2023-09-23T06:37:30.479Z,14.50
2023-09-23T06:39:58.523Z,14.47
2023-09-23T06:42:26.094Z,14.48
2023-09-23T06:44:54.987Z,14.52
2023-09-23T06:47:22.596Z,14.44
2023-09-23T06:49:50.211Z,14.54
2023-09-23T06:52:17.778Z,14.46
2023-09-23T06:54:45.568Z,14.56
2023-09-23T06:57:14.377Z,14.73
2023-09-23T06:59:41.983Z,14.74
2023-09-23T07:02:11.099Z,14.73
2023-09-23T07:04:38.799Z,14.77
2023-09-23T07:07:06.382Z,14.67
2023-09-23T07:09:34.273Z,14.61
2023-09-23T07:12:01.841Z,14.79
2023-09-23T07:14:31.524Z,14.80
2023-09-23T07:16:59.224Z,14.81
2023-09-23T07:19:28.152Z,14.63
2023-09-23T07:21:55.723Z,14.64
2023-09-23T07:24:23.263Z,14.61
2023-09-23T07:26:50.816Z,14.56
2023-09-23T07:29:18.379Z,14.73
2023-09-23T07:31:45.981Z,14.62
2023-09-23T07:34:13.628Z,14.50
2023-09-23T07:36:44.026Z,14.41
2023-09-23T07:39:12.448Z,14.55
2023-09-23T07:41:39.978Z,14.73
2023-09-23T07:44:08.199Z,14.88
2023-09-23T07:46:35.904Z,14.97
2023-09-23T07:49:05.563Z,14.83
2023-09-23T07:51:33.345Z,14.75
2023-09-23T07:54:02.786Z,15.06
2023-09-23T07:56:30.364Z,15.09
2023-09-23T07:58:59.718Z,15.12
2023-09-23T08:01:27.292Z,15.14
2023-09-23T08:03:54.892Z,15.23
2023-09-23T08:06:22.450Z,15.14
2023-09-23T08:08:50.157Z,15.15
2023-09-23T08:11:19.062Z,15.12
2023-09-23T08:13:47.119Z,15.26
2023-09-23T08:16:14.867Z,15.28
2023-09-23T08:18:42.609Z,15.35
2023-09-23T08:21:10.171Z,15.31
2023-09-23T08:23:37.746Z,15.38
2023-09-23T08:26:06.115Z,15.34
2023-09-23T08:28:36.043Z,15.41
2023-09-23T08:31:03.593Z,15.07
2023-09-23T08:33:31.457Z,15.25
2023-09-23T08:35:59.032Z,15.19
2023-09-23T08:38:26.617Z,15.20
2023-09-23T08:40:55.023Z,15.32
2023-09-23T08:43:37.196Z,15.60
2023-09-23T08:46:07.145Z,15.71
2023-09-23T08:48:36.526Z,16.03
2023-09-23T08:51:05.262Z,15.96
2023-09-23T08:53:35.770Z,16.04
2023-09-23T08:56:03.355Z,15.94
2023-09-23T08:58:31.710Z,16.01
2023-09-23T09:00:59.449Z,16.16
2023-09-23T09:03:28.849Z,16.26
2023-09-23T09:05:57.056Z,16.25
2023-09-23T09:08:24.831Z,16.14
2023-09-23T09:10:52.514Z,16.09
2023-09-23T09:13:20.177Z,16.10
2023-09-23T09:15:47.730Z,16.28
2023-09-23T09:18:15.902Z,16.32
2023-09-23T09:20:44.916Z,16.39
2023-09-23T09:23:16.008Z,16.49
2023-09-23T09:25:50.670Z,16.54
2023-09-23T09:28:20.632Z,16.65
2023-09-23T09:30:55.305Z,16.84
2023-09-23T09:33:26.744Z,16.95
2023-09-23T09:35:57.339Z,16.98
2023-09-23T09:38:25.977Z,17.01
2023-09-23T09:41:03.823Z,17.10
2023-09-23T09:43:34.251Z,17.17
2023-09-23T09:46:09.145Z,17.11
2023-09-23T09:48:40.428Z,17.09
2023-09-23T09:51:10.461Z,17.27
2023-09-23T09:53:39.058Z,17.35
2023-09-23T09:56:08.000Z,16.93
2023-09-23T09:58:39.384Z,16.95
2023-09-23T10:01:12.865Z,17.08
2023-09-23T10:03:42.518Z,17.36
2023-09-23T10:06:19.901Z,17.60
2023-09-23T10:08:49.264Z,17.33
2023-09-23T10:11:18.097Z,17.58
2023-09-23T10:13:47.206Z,17.46
2023-09-23T10:16:18.402Z,17.61
2023-09-23T10:18:46.752Z,17.81
2023-09-23T10:21:25.529Z,18.07
2023-09-23T10:23:54.366Z,18.15
2023-09-23T10:26:24.286Z,18.17
2023-09-23T10:28:59.348Z,18.10
2023-09-23T10:31:27.151Z,18.24
2023-09-23T10:33:55.593Z,18.16
2023-09-23T10:36:25.737Z,18.12
2023-09-23T10:38:53.447Z,18.17
2023-09-23T10:41:21.135Z,17.86
2023-09-23T10:43:54.831Z,17.92
2023-09-23T10:46:22.669Z,17.82
2023-09-23T10:48:50.256Z,17.78
2023-09-23T10:51:18.058Z,17.95
2023-09-23T10:53:47.149Z,18.01
2023-09-23T10:56:14.711Z,18.00
2023-09-23T10:58:42.665Z,17.97
2023-09-23T11:01:10.411Z,17.94
2023-09-23T11:03:41.807Z,17.97
2023-09-23T11:06:09.942Z,18.25
2023-09-23T11:08:38.201Z,18.58
2023-09-23T11:11:10.949Z,18.65
2023-09-23T11:13:38.665Z,18.53
2023-09-23T11:16:10.936Z,18.34
2023-09-23T11:18:39.464Z,18.52
2023-09-23T11:21:07.370Z,18.58
2023-09-23T11:23:35.715Z,18.64
2023-09-23T11:26:04.109Z,18.63
2023-09-23T11:28:33.015Z,18.74
2023-09-23T11:31:00.667Z,18.77
2023-09-23T11:33:28.299Z,18.47
2023-09-23T11:35:58.691Z,18.50
2023-09-23T11:38:26.469Z,18.54
2023-09-23T11:40:55.613Z,18.93
2023-09-23T11:43:23.372Z,18.89
2023-09-23T11:45:52.336Z,19.03
2023-09-23T11:48:21.350Z,19.26
2023-09-23T11:50:49.343Z,19.28
2023-09-23T11:53:16.964Z,19.15
2023-09-23T11:55:44.636Z,19.04
2023-09-23T11:58:12.220Z,19.07
2023-09-23T12:00:39.805Z,19.20
2023-09-23T12:03:08.809Z,19.20
2023-09-23T12:05:36.420Z,19.04
2023-09-23T12:08:05.070Z,18.99
2023-09-23T12:10:32.715Z,19.22
2023-09-23T12:13:06.248Z,19.29
2023-09-23T12:15:35.088Z,19.23
2023-09-23T12:18:02.877Z,19.26
2023-09-23T12:20:33.128Z,19.21
2023-09-23T12:23:01.869Z,19.22
2023-09-23T12:25:29.705Z,19.12
2023-09-23T12:27:57.245Z,19.18
2023-09-23T12:30:24.929Z,19.37
2023-09-23T12:32:52.514Z,19.43
2023-09-23T12:35:20.221Z,19.58
2023-09-23T12:37:49.559Z,19.57
2023-09-23T12:40:17.241Z,19.55
2023-09-23T12:42:48.635Z,19.60
2023-09-23T12:45:16.202Z,19.62
2023-09-23T12:47:55.933Z,19.68
2023-09-23T12:50:24.260Z,19.59
2023-09-23T12:52:54.255Z,19.58
2023-09-23T12:55:22.058Z,19.56
2023-09-23T12:57:50.287Z,19.51
2023-09-23T13:00:18.129Z,19.51
2023-09-23T13:02:45.975Z,19.77
2023-09-23T13:05:16.390Z,19.85
2023-09-23T13:07:44.239Z,19.84
2023-09-23T13:10:14.840Z,19.68
2023-09-23T13:12:43.696Z,19.44
2023-09-23T13:15:11.893Z,19.73
2023-09-23T13:17:39.618Z,20.00
2023-09-23T13:20:08.257Z,20.10
2023-09-23T13:22:35.822Z,20.06
2023-09-23T13:25:04.773Z,19.96
2023-09-23T13:27:34.292Z,19.96
2023-09-23T13:30:01.888Z,19.84
2023-09-23T13:32:29.929Z,19.84
2023-09-23T13:34:57.643Z,19.74
2023-09-23T13:37:25.187Z,19.92
2023-09-23T13:39:53.199Z,19.92
2023-09-23T13:42:20.760Z,19.93
2023-09-23T13:44:51.014Z,20.05
2023-09-23T13:47:19.143Z,20.10
2023-09-23T13:49:46.816Z,20.21
2023-09-23T13:52:14.609Z,20.02
2023-09-23T13:54:42.267Z,20.07
2023-09-23T13:57:10.006Z,20.02
2023-09-23T13:59:37.587Z,19.83
2023-09-23T14:02:06.683Z,19.80
2023-09-23T14:04:34.431Z,19.94
2023-09-23T14:07:02.013Z,19.92
2023-09-23T14:09:29.562Z,19.95
2023-09-23T14:11:57.854Z,19.99
2023-09-23T14:14:25.498Z,20.00
2023-09-23T14:16:53.189Z,20.04
2023-09-23T14:19:22.070Z,20.01
2023-09-23T14:21:49.880Z,19.89
2023-09-23T14:24:17.537Z,19.67
2023-09-23T14:26:45.520Z,19.51
2023-09-23T14:29:13.434Z,19.15
2023-09-23T14:31:41.046Z,19.12
2023-09-23T14:34:09.244Z,19.37
2023-09-23T14:36:38.788Z,19.19
2023-09-23T14:39:06.611Z,19.13
2023-09-23T14:41:35.983Z,19.09
2023-09-23T14:44:04.574Z,19.11
2023-09-23T14:46:32.614Z,19.30
2023-09-23T14:49:00.330Z,19.39
2023-09-23T14:51:28.243Z,19.39
2023-09-23T14:53:57.638Z,19.53
2023-09-23T14:56:27.273Z,19.73
2023-09-23T14:58:54.863Z,19.70
2023-09-23T15:01:22.570Z,19.78
2023-09-23T15:03:50.431Z,19.85
2023-09-23T15:06:18.050Z,19.64
2023-09-23T15:08:58.186Z,19.45
2023-09-23T15:11:29.702Z,19.35
2023-09-23T15:13:58.343Z,19.28
2023-09-23T15:16:26.206Z,19.06
2023-09-23T15:18:54.020Z,18.97
2023-09-23T15:21:22.378Z,18.97
2023-09-23T15:23:50.224Z,19.05
2023-09-23T15:26:18.856Z,19.10
2023-09-23T15:28:48.188Z,18.91
2023-09-23T15:31:15.860Z,18.99
2023-09-23T15:33:43.920Z,18.96
2023-09-23T15:36:13.408Z,18.78
2023-09-23T15:38:41.261Z,18.84
2023-09-23T15:41:10.120Z,18.76
2023-09-23T15:43:38.574Z,18.71
2023-09-23T15:46:07.562Z,18.64
2023-09-23T15:48:35.711Z,18.76
2023-09-23T15:51:11.009Z,18.55
2023-09-23T15:53:38.961Z,18.60
2023-09-23T15:56:07.861Z,18.74
2023-09-23T15:58:35.712Z,18.52
2023-09-23T16:01:05.319Z,18.49
2023-09-23T16:03:35.030Z,18.48
2023-09-23T16:06:03.087Z,18.59
2023-09-23T16:08:30.943Z,18.47
2023-09-23T16:10:58.906Z,18.36
2023-09-23T16:13:26.443Z,18.11
2023-09-23T16:15:54.323Z,18.37
2023-09-23T16:18:23.376Z,18.37
2023-09-23T16:20:52.923Z,18.48
2023-09-23T16:23:20.759Z,18.18
2023-09-23T16:25:48.412Z,18.19
2023-09-23T16:28:16.001Z,18.31
2023-09-23T16:30:43.730Z,18.15
2023-09-23T16:33:12.385Z,18.04
2023-09-23T16:35:40.073Z,18.02
2023-09-23T16:38:09.172Z,17.93
2023-09-23T16:40:37.086Z,18.02
2023-09-23T16:43:04.978Z,18.17
2023-09-23T16:45:32.721Z,18.00
2023-09-23T16:48:00.445Z,17.57
2023-09-23T16:50:28.338Z,17.64
2023-09-23T16:52:55.895Z,17.66
2023-09-23T16:55:24.818Z,17.66
2023-09-23T16:57:52.524Z,17.85
2023-09-23T17:00:20.099Z,17.78
2023-09-23T17:02:48.028Z,17.79
2023-09-23T17:05:16.028Z,17.73
2023-09-23T17:07:43.652Z,17.86
2023-09-23T17:10:11.791Z,17.87
2023-09-23T17:12:40.755Z,17.66
2023-09-23T17:15:09.901Z,17.79
2023-09-23T17:17:37.697Z,17.88
2023-09-23T17:20:06.575Z,17.87
2023-09-23T17:22:34.436Z,17.82
2023-09-23T17:25:02.248Z,17.53
2023-09-23T17:27:29.908Z,17.67
2023-09-23T17:29:58.820Z,17.73
2023-09-23T17:32:26.556Z,17.85
2023-09-23T17:34:54.173Z,17.68
2023-09-23T17:37:22.195Z,17.64
2023-09-23T17:39:49.934Z,17.67
2023-09-23T17:42:17.526Z,17.48
2023-09-23T17:44:46.616Z,17.41
2023-09-23T17:47:15.910Z,17.35
2023-09-23T17:49:43.484Z,17.46
2023-09-23T17:52:11.085Z,17.58
2023-09-23T17:54:38.760Z,17.62
2023-09-23T17:57:06.585Z,17.78
2023-09-23T17:59:34.993Z,17.92
2023-09-23T18:02:02.699Z,17.79
2023-09-23T18:04:31.792Z,17.68
2023-09-23T18:07:00.422Z,17.67
2023-09-23T18:09:28.258Z,17.58
2023-09-23T18:11:56.271Z,17.47
2023-09-23T18:14:23.993Z,17.51
2023-09-23T18:16:51.641Z,17.43
2023-09-23T18:19:19.591Z,17.35
2023-09-23T18:21:48.918Z,17.32
2023-09-23T18:24:16.677Z,17.39
2023-09-23T18:26:44.389Z,17.36
2023-09-23T18:29:12.856Z,17.34
2023-09-23T18:31:42.121Z,17.39
2023-09-23T18:34:09.852Z,17.36
2023-09-23T18:36:37.457Z,17.19
2023-09-23T18:39:07.118Z,17.36
2023-09-23T18:41:35.760Z,17.48
2023-09-23T18:44:04.568Z,17.65
2023-09-23T18:46:32.146Z,17.71
2023-09-23T18:48:59.820Z,17.59
2023-09-23T18:51:27.806Z,17.70
2023-09-23T18:53:54.692Z,17.74
2023-09-23T18:56:24.530Z,17.73
2023-09-23T18:58:52.405Z,17.63
2023-09-23T19:01:20.303Z,17.54
2023-09-23T19:03:48.234Z,17.48
2023-09-23T19:06:16.419Z,17.52
2023-09-23T19:08:44.968Z,17.56
2023-09-23T19:11:14.119Z,17.63
2023-09-23T19:13:43.274Z,17.70
2023-09-23T19:16:11.574Z,17.80
2023-09-23T19:18:39.181Z,17.70
2023-09-23T19:21:06.826Z,17.77
2023-09-23T19:23:34.581Z,17.51
2023-09-23T19:26:04.001Z,17.62
2023-09-23T19:28:31.886Z,17.61
2023-09-23T19:31:00.940Z,17.71
2023-09-23T19:33:28.558Z,17.57
2023-09-23T19:35:56.386Z,17.70
2023-09-23T19:38:24.029Z,17.71
2023-09-23T19:40:51.641Z,17.76
2023-09-23T19:43:19.650Z,17.76
2023-09-23T19:45:54.835Z,17.61
2023-09-23T19:48:23.900Z,17.53
2023-09-23T19:50:52.194Z,17.39
2023-09-23T19:53:19.930Z,17.55
2023-09-23T19:55:47.633Z,17.60
2023-09-23T19:58:17.564Z,17.56
2023-09-23T20:00:45.221Z,17.51
2023-09-23T20:03:14.878Z,17.48
2023-09-23T20:05:44.051Z,17.46
2023-09-23T20:08:12.608Z,17.50
2023-09-23T20:10:40.220Z,17.39
2023-09-23T20:13:07.887Z,17.48
2023-09-23T20:15:37.325Z,17.51
2023-09-23T20:18:07.557Z,17.34
2023-09-23T20:20:37.638Z,17.46
2023-09-23T20:23:06.620Z,17.31
2023-09-23T20:25:34.282Z,17.36
2023-09-23T20:28:01.900Z,17.34
2023-09-23T20:30:29.620Z,17.31
2023-09-23T20:32:57.368Z,17.31
2023-09-23T20:35:25.059Z,17.40
2023-09-23T20:37:53.135Z,17.46
2023-09-23T20:40:22.119Z,17.45
2023-09-23T20:42:49.672Z,17.47
2023-09-23T20:45:17.450Z,17.49
2023-09-23T20:47:45.149Z,17.42
2023-09-23T20:50:13.553Z,17.43
2023-09-23T20:52:42.483Z,17.50
2023-09-23T20:55:10.657Z,17.54
2023-09-23T20:57:39.568Z,17.39
2023-09-23T21:00:15.147Z,17.30
2023-09-23T21:02:43.514Z,17.38
2023-09-23T21:05:11.330Z,17.45
2023-09-23T21:07:38.878Z,17.32
2023-09-23T21:10:08.171Z,17.40
2023-09-23T21:12:36.033Z,17.43
2023-09-23T21:15:06.544Z,17.43
2023-09-23T21:17:35.960Z,17.37
2023-09-23T21:20:03.608Z,17.33
2023-09-23T21:22:31.169Z,17.25
2023-09-23T21:24:58.783Z,17.38
2023-09-23T21:27:26.580Z,17.30
2023-09-23T21:29:54.248Z,17.36
2023-09-23T21:32:23.335Z,17.45
2023-09-23T21:34:51.592Z,17.47
2023-09-23T21:37:19.185Z,17.37
2023-09-23T21:39:46.822Z,17.31
2023-09-23T21:42:14.365Z,17.19
2023-09-23T21:44:45.259Z,17.16
2023-09-23T21:47:16.506Z,17.14
2023-09-23T21:49:46.059Z,17.18
2023-09-23T21:52:13.755Z,17.11
2023-09-23T21:54:41.302Z,17.14
2023-09-23T21:57:09.251Z,17.16
2023-09-23T21:59:38.606Z,17.14
2023-09-23T22:02:06.975Z,17.27
2023-09-23T22:04:35.100Z,17.11
2023-09-23T22:07:04.208Z,16.98
2023-09-23T22:09:31.937Z,16.97
2023-09-23T22:12:02.453Z,17.06
2023-09-23T22:14:30.440Z,17.11
2023-09-23T22:16:58.033Z,17.22
2023-09-23T22:19:26.120Z,17.07
2023-09-23T22:21:53.754Z,17.10
2023-09-23T22:24:23.010Z,17.03
2023-09-23T22:26:53.897Z,16.97
2023-09-23T22:29:21.841Z,16.95
2023-09-23T22:31:49.512Z,16.91
2023-09-23T22:34:17.110Z,16.91
2023-09-23T22:36:46.123Z,16.89
2023-09-23T22:39:14.045Z,16.79
2023-09-23T22:41:43.643Z,16.82
2023-09-23T22:44:11.357Z,16.86
2023-09-23T22:46:39.815Z,16.81
2023-09-23T22:49:07.768Z,16.52
2023-09-23T22:51:35.319Z,16.71
2023-09-23T22:54:02.954Z,16.77
2023-09-23T22:56:34.419Z,16.80
2023-09-23T22:59:03.420Z,16.78
2023-09-23T23:01:32.418Z,16.72
2023-09-23T23:04:01.270Z,16.72
2023-09-23T23:06:29.859Z,16.71
2023-09-23T23:08:57.931Z,16.63
2023-09-23T23:11:25.654Z,16.70
2023-09-23T23:13:53.269Z,16.67
2023-09-23T23:16:22.199Z,16.66
2023-09-23T23:18:49.849Z,16.70
2023-09-23T23:21:17.464Z,16.75
2023-09-23T23:23:45.161Z,16.70
2023-09-23T23:26:13.641Z,16.63
2023-09-23T23:28:41.230Z,16.60
2023-09-23T23:31:09.254Z,16.59
2023-09-23T23:33:38.276Z,16.51
2023-09-23T23:36:07.454Z,16.47
2023-09-23T23:38:35.064Z,16.54
2023-09-23T23:41:03.049Z,16.50
2023-09-23T23:43:30.807Z,16.52
2023-09-23T23:45:59.668Z,16.46
2023-09-23T23:48:28.865Z,16.42
2023-09-23T23:51:05.358Z,16.44
2023-09-23T23:53:33.383Z,16.40
2023-09-23T23:56:01.573Z,16.39
2023-09-23T23:58:29.191Z,16.41
